Time;durP1;ratioP1;P1;durP2;ratioP2;P2;SDS_P1;SDS_P2;PMS_P1;PMS_P2;Temp;Humidity;BMP_temperature;BMP_pressure;BME280_temperature;BME280_humidity;BME280_pressure;Samples;Min_cycle;Max_cycle;Signal;HPM_P1;HPM_P2
2022/12/26 00:00:38;;;;;;;50.12;23.98;;;;;;;5.34;100.00;99025.81;2188870;81;21408;-59
2022/12/26 00:03:41;;;;;;;50.17;23.47;;;;;;;5.32;100.00;99024.56;2172048;81;21004;-59
2022/12/26 00:06:42;;;;;;;52.80;23.73;;;;;;;5.37;100.00;99021.36;2189194;81;21499;-59
2022/12/26 00:09:44;;;;;;;50.85;23.90;;;;;;;5.38;100.00;99020.89;2189048;81;21003;-59
2022/12/26 00:12:45;;;;;;;50.35;23.70;;;;;;;5.31;100.00;99010.32;2188902;81;21008;-58
2022/12/26 00:15:46;;;;;;;52.35;23.83;;;;;;;5.33;100.00;98995.49;2184865;81;21004;-59
2022/12/26 00:18:48;;;;;;;49.95;23.12;;;;;;;5.41;100.00;99000.44;2172358;81;20985;-58
2022/12/26 00:21:50;;;;;;;52.43;24.47;;;;;;;5.51;100.00;98989.61;2172539;81;21032;-59
2022/12/26 00:24:51;;;;;;;50.05;24.65;;;;;;;5.43;100.00;98983.00;2172126;81;21728;-58
2022/12/26 00:27:52;;;;;;;50.80;23.18;;;;;;;5.39;100.00;98984.88;2172206;81;21488;-58
2022/12/26 00:30:54;;;;;;;52.80;24.47;;;;;;;5.43;100.00;98983.00;2172102;82;21051;-58
2022/12/26 00:33:55;;;;;;;50.17;23.77;;;;;;;5.51;100.00;98990.91;2172130;81;21579;-58
2022/12/26 00:36:57;;;;;;;51.10;24.18;;;;;;;5.55;100.00;98991.19;2172348;81;21016;-58
2022/12/26 00:39:58;;;;;;;48.43;23.00;;;;;;;5.37;100.00;98993.17;2172312;81;21097;-59
2022/12/26 00:43:00;;;;;;;49.73;23.90;;;;;;;5.43;100.00;98994.70;2172250;81;21657;-58
2022/12/26 00:46:01;;;;;;;53.95;24.15;;;;;;;5.35;100.00;98993.70;2172080;81;21001;-58
2022/12/26 00:49:03;;;;;;;49.73;23.32;;;;;;;5.35;100.00;98996.30;2172372;81;20973;-59
2022/12/26 00:52:04;;;;;;;49.03;21.77;;;;;;;5.37;100.00;98993.17;2172113;81;21119;-58
2022/12/26 00:55:06;;;;;;;51.48;23.30;;;;;;;5.40;100.00;98979.22;2172257;81;21500;-59
2022/12/26 00:58:07;;;;;;;46.88;22.40;;;;;;;5.38;100.00;98981.41;2172265;81;21033;-59
2022/12/26 01:01:09;;;;;;;50.48;22.37;;;;;;;5.22;100.00;98980.77;2172197;81;21005;-59
2022/12/26 01:04:10;;;;;;;47.10;21.73;;;;;;;5.11;100.00;98970.27;2172333;81;21021;-58
2022/12/26 01:07:12;;;;;;;47.53;21.65;;;;;;;5.07;100.00;98964.81;2172138;81;21000;-58
2022/12/26 01:10:13;;;;;;;48.25;22.45;;;;;;;5.05;100.00;98954.91;2172475;81;21004;-59
2022/12/26 01:13:14;;;;;;;49.63;21.33;;;;;;;5.18;100.00;98946.20;2172219;81;20981;-58
2022/12/26 01:16:16;;;;;;;49.23;21.37;;;;;;;5.21;100.00;98961.69;2177156;81;21583;-59
2022/12/26 01:19:17;;;;;;;49.27;23.10;;;;;;;5.19;100.00;98972.61;2188683;81;21088;-58
2022/12/26 01:22:19;;;;;;;48.78;22.32;;;;;;;5.18;100.00;98973.05;2188746;81;21503;-58
2022/12/26 01:25:20;;;;;;;46.63;21.33;;;;;;;5.36;100.00;98970.23;2188553;81;21059;-59
2022/12/26 01:28:22;;;;;;;50.30;22.43;;;;;;;5.23;100.00;98963.80;2188955;81;21001;-59
2022/12/26 01:31:23;;;;;;;49.83;23.27;;;;;;;5.33;100.00;98972.08;2188775;81;21008;-59
2022/12/26 01:34:25;;;;;;;50.90;22.63;;;;;;;5.31;100.00;98972.14;2188909;81;20995;-59
2022/12/26 01:37:26;;;;;;;49.50;22.22;;;;;;;5.36;100.00;98965.49;2188773;81;20980;-59
2022/12/26 01:40:28;;;;;;;44.13;22.30;;;;;;;5.26;100.00;98970.61;2188431;81;21107;-58
2022/12/26 01:43:30;;;;;;;50.05;23.20;;;;;;;5.32;100.00;98957.41;2188951;81;22485;-58
2022/12/26 01:46:31;;;;;;;46.68;21.60;;;;;;;5.28;100.00;98961.02;2188604;81;21040;-58
2022/12/26 01:49:33;;;;;;;46.25;21.00;;;;;;;5.31;100.00;98962.20;2188893;81;21482;-58
2022/12/26 01:52:34;;;;;;;47.90;22.55;;;;;;;5.26;100.00;98953.70;2188627;81;20941;-59
2022/12/26 01:55:36;;;;;;;47.40;22.00;;;;;;;5.34;100.00;98947.34;2188726;81;21506;-59
2022/12/26 01:58:37;;;;;;;46.95;22.55;;;;;;;5.37;100.00;98945.92;2188750;81;20976;-59
2022/12/26 02:01:38;;;;;;;44.58;20.85;;;;;;;5.43;100.00;98947.45;2188619;81;20988;-58
2022/12/26 02:07:43;;;;;;;47.60;21.52;;;;;;;5.50;100.00;98920.29;2171855;81;20998;-58
2022/12/26 02:10:45;;;;;;;45.10;21.33;;;;;;;5.33;100.00;98896.66;2188776;81;21001;-58
2022/12/26 02:13:46;;;;;;;44.53;21.00;;;;;;;5.40;100.00;98892.91;2188755;81;21015;-59
2022/12/26 02:16:48;;;;;;;48.28;21.52;;;;;;;5.35;100.00;98908.70;2181966;81;20982;-59
2022/12/26 02:19:49;;;;;;;44.60;21.48;;;;;;;5.24;100.00;98914.76;2172148;81;21467;-59
2022/12/26 02:22:51;;;;;;;49.38;20.15;;;;;;;5.30;100.00;98901.98;2172027;81;21050;-59
2022/12/26 02:25:52;;;;;;;40.40;20.48;;;;;;;5.37;100.00;98909.50;2171991;81;21560;-59
2022/12/26 02:28:54;;;;;;;48.17;22.23;;;;;;;5.25;100.00;98899.56;2172285;82;21112;-59
2022/12/26 02:31:55;;;;;;;42.08;20.08;;;;;;;5.25;100.00;98895.66;2172134;81;21496;-59
2022/12/26 02:34:57;;;;;;;45.88;21.17;;;;;;;5.26;100.00;98893.89;2172367;81;21033;-58
2022/12/26 02:37:58;;;;;;;45.17;20.25;;;;;;;5.23;100.00;98882.31;2171920;82;21064;-58
2022/12/26 02:41:00;;;;;;;43.87;20.88;;;;;;;5.26;100.00;98888.26;2171717;81;21088;-59
2022/12/26 02:47:01;;;;;;;45.10;20.32;;;;;;;5.27;100.00;98877.39;2171698;82;20993;-59
2022/12/26 02:47:04;;;;;;;41.48;19.80;;;;;;;5.18;100.00;98875.99;2161751;82;21044;-59
2022/12/26 03:14:32;;;;;;;41.75;19.05;;;;;;;5.15;100.00;98813.70;2161947;82;20946;-59
2022/12/26 03:17:34;;;;;;;42.13;18.45;;;;;;;5.19;100.00;98797.08;2172199;81;21129;-58
2022/12/26 03:20:35;;;;;;;41.20;18.37;;;;;;;5.16;100.00;98802.41;2172319;81;21044;-59
2022/12/26 03:23:37;;;;;;;42.23;17.50;;;;;;;5.18;100.00;98800.58;2172408;81;21028;-59
2022/12/26 03:26:38;;;;;;;44.98;18.95;;;;;;;5.17;100.00;98794.55;2172449;81;21464;-58
2022/12/26 03:32:43;;;;;;;40.92;18.02;;;;;;;5.17;100.00;98807.98;2161932;82;21005;-58
2022/12/26 03:35:45;;;;;;;41.60;18.47;;;;;;;5.20;100.00;98806.55;2172506;82;21092;-58
2022/12/26 03:38:54;;;;;;;41.98;17.57;;;;;;;5.25;100.00;98802.50;2172199;81;20984;-59
2022/12/26 04:45:59;;;;;;;34.25;14.63;;;;;;;5.36;100.00;98719.22;2161837;82;20993;-59
2022/12/26 04:52:04;;;;;;;35.75;13.83;;;;;;;5.37;100.00;98728.72;2161868;82;21651;-59
2022/12/26 04:55:06;;;;;;;33.78;13.30;;;;;;;5.42;100.00;98732.89;2172237;81;21028;-58
2022/12/26 04:58:07;;;;;;;33.55;13.35;;;;;;;5.41;100.00;98741.13;2172221;81;21095;-58
2022/12/26 05:10:18;;;;;;;33.58;13.43;;;;;;;5.55;100.00;98734.90;2162029;82;21448;-58
2022/12/26 05:13:20;;;;;;;34.50;13.48;;;;;;;5.45;100.00;98745.30;2172439;81;21029;-58
2022/12/26 05:31:38;;;;;;;34.53;13.28;;;;;;;5.49;100.00;98712.22;2161846;82;21012;-58
2022/12/26 05:34:39;;;;;;;34.38;13.30;;;;;;;5.44;100.00;98711.09;2172212;81;21037;-59
2022/12/26 05:37:40;;;;;;;35.70;12.58;;;;;;;5.46;100.00;98720.13;2172390;81;21080;-58
2022/12/26 05:40:42;;;;;;;32.58;12.63;;;;;;;5.51;100.00;98735.94;2172185;82;20985;-59
2022/12/26 05:43:44;;;;;;;31.30;12.50;;;;;;;5.47;100.00;98719.22;2172250;81;21117;-58
2022/12/26 05:46:45;;;;;;;35.03;13.87;;;;;;;5.54;100.00;98714.98;2172252;81;21579;-59
2022/12/26 05:49:47;;;;;;;34.63;13.20;;;;;;;5.59;100.00;98708.75;2172063;81;21583;-59
2022/12/26 05:52:48;;;;;;;33.02;12.78;;;;;;;5.57;100.00;98717.92;2172032;81;21096;-59
2022/12/26 05:55:49;;;;;;;32.15;13.13;;;;;;;5.51;100.00;98711.22;2172020;81;21065;-58
2022/12/26 05:58:51;;;;;;;32.03;12.45;;;;;;;5.58;100.00;98699.27;2172177;81;20981;-58
2022/12/26 06:01:52;;;;;;;32.33;12.13;;;;;;;5.64;100.00;98704.20;2172063;81;21036;-59
2022/12/26 06:04:54;;;;;;;32.85;12.00;;;;;;;5.66;100.00;98704.54;2172052;81;21045;-58
2022/12/26 06:07:55;;;;;;;30.20;11.68;;;;;;;5.71;100.00;98721.25;2171784;81;21500;-59
2022/12/26 06:14:00;;;;;;;28.87;10.68;;;;;;;5.71;100.00;98724.69;2161281;82;20986;-59
2022/12/26 06:17:02;;;;;;;31.87;11.70;;;;;;;5.66;100.00;98738.37;2172174;82;21101;-58
2022/12/26 06:20:03;;;;;;;29.95;11.70;;;;;;;5.71;100.00;98726.45;2171710;81;21131;-58
2022/12/26 06:23:05;;;;;;;30.43;12.07;;;;;;;5.77;100.00;98718.38;2172051;81;21500;-58
2022/12/26 06:26:08;;;;;;;31.07;11.88;;;;;;;5.83;100.00;98731.14;2171963;81;21076;-59
2022/12/26 06:29:09;;;;;;;29.00;11.50;;;;;;;5.83;100.00;98736.78;2172248;81;21092;-59
2022/12/26 06:32:11;;;;;;;31.07;11.55;;;;;;;5.93;100.00;98741.98;2172004;81;21084;-58
2022/12/26 06:35:12;;;;;;;29.55;11.38;;;;;;;5.89;100.00;98732.64;2172239;81;21056;-59
2022/12/26 06:38:14;;;;;;;33.65;12.15;;;;;;;5.91;100.00;98736.01;2172038;81;21025;-58
2022/12/26 06:41:15;;;;;;;30.77;11.88;;;;;;;5.87;100.00;98733.98;2172295;81;21516;-58
2022/12/26 06:44:17;;;;;;;29.47;12.00;;;;;;;5.76;100.00;98732.32;2171952;81;21131;-58
2022/12/26 06:47:18;;;;;;;34.30;11.88;;;;;;;5.72;100.00;98723.78;2171637;81;21092;-59
2022/12/26 06:50:21;;;;;;;30.32;11.95;;;;;;;5.71;100.00;98723.84;2172122;82;21057;-59
2022/12/26 06:53:23;;;;;;;32.98;12.55;;;;;;;5.64;100.00;98731.06;2161814;82;21018;-59
2022/12/26 06:56:24;;;;;;;32.78;12.75;;;;;;;5.63;100.00;98729.83;2172109;81;21032;-59
2022/12/26 06:59:26;;;;;;;29.65;12.58;;;;;;;5.72;100.00;98719.05;2172388;81;21053;-59
2022/12/26 07:02:27;;;;;;;33.25;13.53;;;;;;;5.68;100.00;98717.48;2172131;82;21064;-59
2022/12/26 07:05:29;;;;;;;34.43;13.25;;;;;;;5.71;100.00;98718.17;2172273;81;21088;-58
2022/12/26 07:08:30;;;;;;;30.52;12.95;;;;;;;5.79;100.00;98726.11;2172125;81;21037;-59
2022/12/26 07:11:32;;;;;;;32.00;12.65;;;;;;;5.88;100.00;98734.84;2172388;81;21591;-58
2022/12/26 07:14:33;;;;;;;34.53;12.33;;;;;;;5.98;100.00;98723.14;2172007;81;21081;-58
2022/12/26 07:17:35;;;;;;;29.95;12.33;;;;;;;6.14;100.00;98718.56;2176112;81;21630;-58
2022/12/26 07:20:37;;;;;;;30.48;13.13;;;;;;;6.03;100.00;98714.69;2188781;81;21059;-58
2022/12/26 07:23:39;;;;;;;32.55;13.13;;;;;;;6.02;100.00;98713.42;2188950;81;20984;-58
2022/12/26 07:26:42;;;;;;;33.30;13.40;;;;;;;6.26;100.00;98703.67;2188820;81;20985;-58
2022/12/26 07:29:44;;;;;;;30.23;12.70;;;;;;;6.03;100.00;98726.84;2171819;81;21663;-58
2022/12/26 07:32:45;;;;;;;33.92;13.83;;;;;;;6.31;100.00;98743.87;2188757;81;20996;-59
2022/12/26 07:35:46;;;;;;;32.05;12.93;;;;;;;6.44;100.00;98730.67;2188582;81;20986;-58
2022/12/26 07:38:48;;;;;;;32.63;13.75;;;;;;;6.38;100.00;98699.69;2188825;81;21024;-58
2022/12/26 07:44:53;;;;;;;34.08;13.22;;;;;;;6.52;100.00;98694.69;2172126;81;21047;-58
2022/12/26 07:47:54;;;;;;;34.78;15.13;;;;;;;6.56;100.00;98695.38;2189082;81;21004;-58
2022/12/26 07:50:56;;;;;;;34.85;15.38;;;;;;;6.60;100.00;98683.89;2188966;81;21019;-58
2022/12/26 07:53:57;;;;;;;34.67;14.75;;;;;;;6.55;100.00;98689.77;2189007;81;20992;-58
2022/12/26 07:56:59;;;;;;;34.38;14.13;;;;;;;6.63;100.00;98658.98;2188832;81;21041;-58
2022/12/26 08:00:00;;;;;;;35.10;15.18;;;;;;;6.84;100.00;98689.71;2189080;81;21455;-58
2022/12/26 08:03:01;;;;;;;36.20;16.02;;;;;;;6.92;100.00;98699.32;2188859;81;21026;-58
2022/12/26 08:06:03;;;;;;;35.43;15.68;;;;;;;6.85;100.00;98697.92;2188770;81;21436;-58
2022/12/26 08:09:05;;;;;;;39.48;16.02;;;;;;;6.96;100.00;98693.48;2188741;81;21067;-59
2022/12/26 08:12:06;;;;;;;36.87;17.77;;;;;;;7.01;100.00;98690.64;2189016;81;21480;-58
2022/12/26 08:15:08;;;;;;;41.53;19.12;;;;;;;7.09;100.00;98691.13;2188921;81;21031;-58
2022/12/26 08:18:10;;;;;;;44.45;18.85;;;;;;;7.15;100.00;98684.30;2188716;81;21071;-58
2022/12/26 08:21:12;;;;;;;37.85;17.48;;;;;;;7.10;100.00;98687.61;2188762;81;20980;-58
2022/12/26 08:24:14;;;;;;;36.90;16.10;;;;;;;7.20;100.00;98683.63;2188921;81;20977;-58
2022/12/26 08:27:16;;;;;;;37.78;16.30;;;;;;;7.20;100.00;98683.63;2188748;81;21540;-58
2022/12/26 08:30:18;;;;;;;36.75;16.37;;;;;;;7.18;100.00;98688.05;2188739;81;21052;-58
2022/12/26 08:33:19;;;;;;;37.63;15.85;;;;;;;7.20;100.00;98706.27;2188741;81;21538;-59
2022/12/26 08:36:21;;;;;;;37.83;16.25;;;;;;;7.25;100.00;98698.56;2188749;81;21032;-59
2022/12/26 08:39:22;;;;;;;39.38;16.82;;;;;;;7.25;100.00;98702.48;2188485;81;21051;-59
2022/12/26 08:42:24;;;;;;;38.85;17.95;;;;;;;7.33;100.00;98696.07;2188827;81;21459;-59
2022/12/26 08:45:25;;;;;;;61.37;29.72;;;;;;;7.40;100.00;98700.06;2188785;81;20941;-59
2022/12/26 08:48:27;;;;;;;55.55;30.75;;;;;;;7.53;100.00;98692.43;2188837;81;20992;-59
2022/12/26 08:51:28;;;;;;;44.05;19.30;;;;;;;7.67;100.00;98696.95;2188793;81;21008;-59
2022/12/26 08:54:30;;;;;;;38.37;19.03;;;;;;;7.71;100.00;98691.97;2188641;81;20993;-58
2022/12/26 08:57:31;;;;;;;37.35;17.45;;;;;;;7.83;100.00;98695.70;2188789;81;21676;-59
2022/12/26 09:00:33;;;;;;;46.00;21.73;;;;;;;7.89;100.00;98696.72;2188603;81;21055;-59
2022/12/26 09:03:34;;;;;;;39.70;18.65;;;;;;;8.00;100.00;98692.22;2188715;81;21523;-58
2022/12/26 09:06:35;;;;;;;32.73;14.65;;;;;;;8.16;100.00;98690.50;2188750;81;21023;-58
2022/12/26 09:09:37;;;;;;;32.67;13.00;;;;;;;8.31;100.00;98687.52;2188679;81;21055;-59
2022/12/26 09:12:39;;;;;;;32.73;14.30;;;;;;;8.41;100.00;98679.55;2189051;81;21011;-58
2022/12/26 09:15:40;;;;;;;32.25;14.28;;;;;;;8.48;100.00;98670.95;2188736;81;21318;-58
2022/12/26 09:18:41;;;;;;;33.67;14.58;;;;;;;8.61;100.00;98665.42;2181465;81;21045;-59
2022/12/26 09:21:43;;;;;;;34.92;14.68;;;;;;;8.71;100.00;98674.08;2172197;81;20985;-59
2022/12/26 09:24:44;;;;;;;39.63;16.00;;;;;;;8.73;100.00;98678.27;2172428;81;21510;-58
2022/12/26 09:27:46;;;;;;;35.73;15.83;;;;;;;8.84;100.00;98670.67;2172183;82;21012;-59
2022/12/26 09:30:47;;;;;;;34.00;14.58;;;;;;;8.90;100.00;98673.41;2172130;81;21139;-58
2022/12/26 09:33:49;;;;;;;33.10;13.98;;;;;;;8.94;100.00;98674.92;2172205;81;21045;-58
2022/12/26 09:36:51;;;;;;;38.67;16.73;;;;;;;9.03;100.00;98662.25;2172173;82;20957;-59
2022/12/26 09:39:52;;;;;;;34.47;15.87;;;;;;;9.09;100.00;98664.52;2172421;81;21009;-59
2022/12/26 09:42:54;;;;;;;43.38;17.85;;;;;;;9.14;100.00;98656.77;2172435;81;21495;-59
2022/12/26 09:45:55;;;;;;;36.93;14.10;;;;;;;9.20;100.00;98660.81;2172134;81;21056;-59
2022/12/26 09:48:58;;;;;;;47.20;19.55;;;;;;;9.27;100.00;98663.45;2171896;82;21061;-58
2022/12/26 09:51:59;;;;;;;41.75;18.25;;;;;;;9.28;100.00;98659.91;2172316;81;21029;-59
2022/12/26 09:55:00;;;;;;;39.75;16.27;;;;;;;9.30;100.00;98641.02;2172238;82;21000;-59
2022/12/26 09:58:02;;;;;;;34.60;13.85;;;;;;;9.37;100.00;98655.91;2172207;81;21539;-59
2022/12/26 10:01:03;;;;;;;43.60;17.42;;;;;;;9.43;100.00;98659.95;2172274;81;21037;-58
2022/12/26 10:04:05;;;;;;;50.48;18.73;;;;;;;9.41;100.00;98658.73;2172287;81;21436;-59
2022/12/26 10:07:06;;;;;;;33.63;15.05;;;;;;;9.53;100.00;98667.63;2172327;81;21028;-59
2022/12/26 10:10:08;;;;;;;42.48;16.25;;;;;;;9.64;100.00;98661.28;2172273;81;21567;-58
2022/12/26 10:13:10;;;;;;;65.97;23.90;;;;;;;9.71;100.00;98653.88;2172146;81;21094;-59
2022/12/26 10:16:12;;;;;;;60.00;21.37;;;;;;;9.76;100.00;98653.16;2172132;81;21528;-59
2022/12/26 10:19:13;;;;;;;37.10;14.87;;;;;;;9.91;100.00;98639.58;2180805;81;21064;-58
2022/12/26 10:22:15;;;;;;;43.98;15.98;;;;;;;10.05;100.00;98636.95;2188822;81;21123;-59
2022/12/26 10:25:16;;;;;;;50.25;17.92;;;;;;;10.11;100.00;98639.66;2188757;81;21036;-59
2022/12/26 10:28:18;;;;;;;53.92;20.00;;;;;;;10.28;100.00;98641.23;2188794;81;21032;-58
2022/12/26 10:31:19;;;;;;;42.35;16.10;;;;;;;10.35;100.00;98632.08;2188909;81;21597;-59
2022/12/26 10:34:21;;;;;;;49.00;18.92;;;;;;;10.41;100.00;98624.30;2188844;81;21067;-59
2022/12/26 10:37:23;;;;;;;43.70;17.92;;;;;;;10.41;100.00;98628.23;2188490;81;21531;-58
2022/12/26 10:40:25;;;;;;;34.08;14.35;;;;;;;10.49;100.00;98633.00;2188727;81;21052;-58
2022/12/26 10:43:27;;;;;;;31.57;12.98;;;;;;;10.48;100.00;98630.00;2188590;81;21554;-58
2022/12/26 10:46:29;;;;;;;28.75;12.25;;;;;;;10.37;100.00;98638.09;2188615;81;20977;-59
2022/12/26 10:49:30;;;;;;;30.82;12.78;;;;;;;10.35;100.00;98636.01;2188787;81;21028;-59
2022/12/26 10:52:32;;;;;;;30.95;13.30;;;;;;;10.48;100.00;98653.60;2188743;81;20981;-59
2022/12/26 10:55:33;;;;;;;31.85;13.60;;;;;;;10.55;100.00;98662.28;2189116;81;21470;-58
2022/12/26 10:58:34;;;;;;;35.23;13.58;;;;;;;10.58;100.00;98650.77;2188844;81;20981;-59
2022/12/26 11:01:36;;;;;;;30.12;12.88;;;;;;;10.57;100.00;98650.38;2188624;81;20965;-58
2022/12/26 11:04:38;;;;;;;29.85;13.25;;;;;;;10.53;100.00;98646.27;2188912;81;20987;-58
2022/12/26 11:07:39;;;;;;;31.70;13.25;;;;;;;10.56;100.00;98661.83;2188574;81;20993;-58
2022/12/26 11:10:45;;;;;;;30.20;13.13;;;;;;;10.72;100.00;98665.14;2188824;81;21522;-58
2022/12/26 11:13:44;;;;;;;27.87;12.05;;;;;;;10.90;100.00;98664.89;2172237;81;21016;-59
2022/12/26 11:16:45;;;;;;;35.45;16.10;;;;;;;11.10;100.00;98642.59;2188757;81;20989;-58
2022/12/26 11:19:47;;;;;;;38.80;16.80;;;;;;;11.18;100.00;98647.36;2178413;81;21484;-59
2022/12/26 11:22:48;;;;;;;40.73;17.23;;;;;;;11.24;100.00;98643.00;2172305;81;21085;-59
2022/12/26 11:25:51;;;;;;;29.65;12.88;;;;;;;11.14;100.00;98633.58;2161678;82;21005;-59
2022/12/26 11:28:53;;;;;;;30.40;13.03;;;;;;;11.23;100.00;98632.98;2172433;81;21540;-59
2022/12/26 11:31:54;;;;;;;31.60;12.95;;;;;;;11.05;100.00;98625.84;2172278;81;20989;-59
2022/12/26 11:34:56;;;;;;;31.82;12.80;;;;;;;10.97;100.00;98626.81;2172145;81;21091;-59
2022/12/26 11:37:57;;;;;;;35.88;15.00;;;;;;;10.96;100.00;98633.02;2172087;81;21149;-59
2022/12/26 11:44:03;;;;;;;39.60;17.30;;;;;;;11.04;100.00;98611.52;2161837;82;20962;-59
2022/12/26 11:47:05;;;;;;;30.35;13.40;;;;;;;11.02;100.00;98612.06;2172161;81;21016;-58
2022/12/26 11:50:06;;;;;;;30.02;12.63;;;;;;;11.06;100.00;98613.10;2172168;81;21042;-58
2022/12/26 11:53:09;;;;;;;42.55;18.40;;;;;;;11.06;100.00;98617.03;2172624;81;21582;-59
2022/12/26 11:56:10;;;;;;;38.38;16.90;;;;;;;11.15;100.00;98609.02;2172109;81;21057;-59
2022/12/26 11:59:12;;;;;;;29.02;12.30;;;;;;;11.23;100.00;98609.80;2172432;81;21013;-58
2022/12/26 12:02:13;;;;;;;30.95;12.65;;;;;;;11.18;100.00;98603.56;2172374;81;21092;-59
2022/12/26 12:05:15;;;;;;;36.88;17.10;;;;;;;11.12;100.00;98606.60;2172402;81;21448;-59
2022/12/26 12:08:16;;;;;;;30.50;12.53;;;;;;;11.11;100.00;98603.59;2172220;81;21023;-59
2022/12/26 12:11:18;;;;;;;31.62;12.98;;;;;;;11.14;100.00;98611.27;2172167;81;21494;-58
2022/12/26 12:14:19;;;;;;;38.42;17.42;;;;;;;11.08;100.00;98613.83;2172379;81;20997;-59
2022/12/26 12:17:21;;;;;;;40.45;19.00;;;;;;;11.11;100.00;98611.95;2172233;81;21036;-59
2022/12/26 12:20:25;;;;;;;36.73;17.17;;;;;;;11.11;100.00;98603.59;2171951;82;21054;-59
2022/12/26 12:23:26;;;;;;;47.93;24.92;;;;;;;11.14;100.00;98601.25;2161901;82;21000;-59
2022/12/26 12:26:28;;;;;;;37.33;17.70;;;;;;;11.23;100.00;98587.04;2172354;81;21511;-59
2022/12/26 12:29:29;;;;;;;39.40;16.82;;;;;;;11.28;100.00;98586.72;2172507;81;20976;-59
2022/12/26 12:32:30;;;;;;;33.58;15.48;;;;;;;11.29;100.00;98589.69;2172234;81;21029;-59
2022/12/26 12:35:32;;;;;;;39.83;18.07;;;;;;;11.36;100.00;98593.58;2172516;82;21578;-59
2022/12/26 12:38:34;;;;;;;34.30;13.83;;;;;;;11.45;100.00;98582.95;2172385;81;21579;-59
2022/12/26 12:41:36;;;;;;;36.30;15.83;;;;;;;11.38;100.00;98590.40;2172173;81;21009;-59
2022/12/26 12:44:37;;;;;;;31.37;13.18;;;;;;;11.34;100.00;98588.92;2172103;81;21638;-59
2022/12/26 12:47:38;;;;;;;34.92;15.03;;;;;;;11.30;100.00;98600.57;2172338;81;21072;-59
2022/12/26 12:50:40;;;;;;;34.15;15.68;;;;;;;11.25;100.00;98594.81;2172130;81;21033;-59
2022/12/26 12:53:43;;;;;;;31.07;13.62;;;;;;;11.51;100.00;98593.52;2172379;81;20980;-59
2022/12/26 12:56:45;;;;;;;29.10;12.15;;;;;;;11.72;100.00;98590.72;2161371;82;21044;-59
2022/12/26 12:59:46;;;;;;;30.75;12.85;;;;;;;11.88;100.00;98592.25;2172147;81;20993;-59
2022/12/26 13:02:48;;;;;;;30.08;12.65;;;;;;;11.87;100.00;98591.91;2172342;81;21531;-59
2022/12/26 13:05:50;;;;;;;31.42;11.97;;;;;;;11.82;100.00;98598.77;2172158;82;21108;-59
2022/12/26 13:08:52;;;;;;;29.40;12.10;;;;;;;11.79;100.00;98590.66;2172481;81;21544;-59
2022/12/26 13:11:53;;;;;;;33.33;12.93;;;;;;;11.80;100.00;98584.92;2172228;81;21059;-59
2022/12/26 13:14:55;;;;;;;29.45;11.93;;;;;;;11.82;100.00;98587.44;2172420;81;21535;-59
2022/12/26 13:17:56;;;;;;;32.53;12.70;;;;;;;11.94;100.00;98570.84;2172327;81;21104;-59
2022/12/26 13:20:58;;;;;;;32.55;13.18;;;;;;;12.12;100.00;98578.74;2186069;81;21639;-59
2022/12/26 13:27:03;;;;;;;31.40;13.18;;;;;;;11.90;100.00;98582.00;2171750;81;20977;-59
2022/12/26 13:30:04;;;;;;;34.60;13.75;;;;;;;11.76;100.00;98596.58;2188666;81;21100;-59
2022/12/26 13:33:05;;;;;;;34.03;14.68;;;;;;;11.56;100.00;98596.64;2188521;81;21107;-59
2022/12/26 13:36:07;;;;;;;33.30;13.70;;;;;;;11.35;100.00;98578.80;2188520;81;21100;-59
2022/12/26 13:39:09;;;;;;;34.23;13.90;;;;;;;11.26;100.00;98574.16;2189027;81;21475;-59
2022/12/26 13:45:14;;;;;;;33.92;14.05;;;;;;;11.01;100.00;98580.23;2172142;81;20997;-59
2022/12/26 13:48:15;;;;;;;32.05;13.13;;;;;;;10.96;100.00;98582.30;2188742;81;20965;-60
2022/12/26 13:51:17;;;;;;;38.27;17.37;;;;;;;10.95;100.00;98579.30;2189102;81;20988;-59
2022/12/26 13:54:19;;;;;;;32.07;14.17;;;;;;;10.99;100.00;98575.53;2188753;81;21483;-59
2022/12/26 13:57:20;;;;;;;31.07;12.95;;;;;;;10.85;100.00;98577.78;2188781;81;21099;-59
2022/12/26 14:00:22;;;;;;;33.37;13.93;;;;;;;10.77;100.00;98582.69;2188882;81;20964;-59
2022/12/26 14:03:27;;;;;;;35.10;13.93;;;;;;;10.69;100.00;98584.03;2188825;81;21038;-59
2022/12/26 14:06:28;;;;;;;33.83;13.93;;;;;;;10.53;100.00;98592.50;2188722;81;20988;-59
2022/12/26 14:09:30;;;;;;;34.98;14.47;;;;;;;10.34;100.00;98602.89;2188869;81;20980;-58
2022/12/26 14:12:31;;;;;;;32.55;12.80;;;;;;;10.30;100.00;98602.67;2188740;81;21483;-59
2022/12/26 14:15:33;;;;;;;34.53;13.05;;;;;;;10.29;100.00;98600.16;2188830;81;20968;-59
2022/12/26 14:18:34;;;;;;;34.43;13.95;;;;;;;10.31;100.00;98587.30;2188624;81;20988;-58
2022/12/26 14:21:36;;;;;;;37.90;15.15;;;;;;;10.17;100.00;98588.20;2188782;81;21007;-59
2022/12/26 14:24:37;;;;;;;39.73;17.20;;;;;;;10.15;100.00;98581.36;2188598;81;21060;-59
2022/12/26 14:27:39;;;;;;;35.30;14.68;;;;;;;10.21;100.00;98593.62;2188779;81;20988;-58
2022/12/26 14:30:40;;;;;;;41.35;16.73;;;;;;;10.07;100.00;98596.27;2188613;81;20972;-59
2022/12/26 14:33:42;;;;;;;44.08;18.02;;;;;;;10.11;100.00;98595.11;2188556;81;21591;-59
2022/12/26 14:36:43;;;;;;;37.95;14.40;;;;;;;10.07;100.00;98593.64;2188826;81;20968;-59
2022/12/26 14:39:44;;;;;;;40.00;18.82;;;;;;;9.97;100.00;98600.38;2188624;81;21059;-58
2022/12/26 14:45:49;;;;;;;45.20;17.37;;;;;;;9.83;100.00;98611.72;2171632;81;20985;-59
2022/12/26 14:48:51;;;;;;;38.33;14.73;;;;;;;9.80;100.00;98600.95;2188942;81;21029;-59
2022/12/26 14:51:52;;;;;;;37.83;15.03;;;;;;;9.74;100.00;98600.03;2189189;81;21020;-58
2022/12/26 14:54:54;;;;;;;34.95;14.45;;;;;;;9.70;100.00;98605.08;2188814;81;21052;-59
2022/12/26 14:57:55;;;;;;;35.50;14.20;;;;;;;9.68;100.00;98599.08;2188907;81;21035;-59
2022/12/26 15:00:58;;;;;;;37.40;16.42;;;;;;;9.64;100.00;98607.60;2189147;81;21055;-59
2022/12/26 15:03:59;;;;;;;49.93;22.52;;;;;;;9.68;100.00;98605.17;2189293;81;21472;-59
2022/12/26 15:07:01;;;;;;;54.33;22.55;;;;;;;9.70;100.00;98620.31;2189054;81;21065;-58
2022/12/26 15:10:03;;;;;;;35.15;15.48;;;;;;;9.70;100.00;98616.87;2189396;81;21527;-59
2022/12/26 15:13:05;;;;;;;;;;;;;;;9.69;100.00;98623.03;2191603;81;21005;-59
2022/12/26 15:16:06;;;;;;;41.00;15.72;;;;;;;9.66;100.00;98617.50;2189124;81;20097;-58
2022/12/26 15:19:08;;;;;;;42.13;17.77;;;;;;;9.66;100.00;98611.44;2188976;81;21059;-59
2022/12/26 15:22:09;;;;;;;39.92;15.80;;;;;;;9.66;100.00;98620.60;2189441;81;21451;-59
2022/12/26 15:25:10;;;;;;;38.28;15.00;;;;;;;9.58;100.00;98618.42;2188955;81;21058;-59
2022/12/26 15:28:12;;;;;;;39.18;16.95;;;;;;;9.60;100.00;98621.81;2188993;81;21072;-59
2022/12/26 15:31:13;;;;;;;43.30;17.50;;;;;;;9.68;100.00;98613.48;2189175;81;20957;-59
2022/12/26 15:34:15;;;;;;;44.13;19.25;;;;;;;9.59;100.00;98610.95;2188683;81;21028;-59
2022/12/26 15:37:16;;;;;;;34.88;14.68;;;;;;;9.60;100.00;98594.80;2189307;81;21511;-59
2022/12/26 15:40:18;;;;;;;44.93;18.85;;;;;;;9.58;100.00;98600.09;2189292;81;21055;-59
2022/12/26 15:43:19;;;;;;;48.13;21.02;;;;;;;9.51;100.00;98593.55;2189402;81;21072;-59
2022/12/26 15:46:22;;;;;;;50.63;22.02;;;;;;;9.53;100.00;98591.69;2189078;81;21104;-59
2022/12/26 15:49:23;;;;;;;40.25;17.70;;;;;;;9.45;100.00;98578.22;2189177;81;20988;-59
2022/12/26 15:52:25;;;;;;;35.88;15.83;;;;;;;9.48;100.00;98576.27;2188828;81;21092;-58
2022/12/26 15:55:27;;;;;;;36.83;15.45;;;;;;;9.46;100.00;98566.81;2188800;81;21622;-59
2022/12/26 15:58:28;;;;;;;37.20;16.55;;;;;;;9.43;100.00;98557.84;2188887;81;20988;-59
2022/12/26 16:01:29;;;;;;;37.28;16.67;;;;;;;9.32;100.00;98564.58;2188653;81;21016;-59
2022/12/26 16:04:31;;;;;;;39.13;16.15;;;;;;;9.23;100.00;98562.49;2188816;81;20964;-59
2022/12/26 16:07:32;;;;;;;36.63;15.65;;;;;;;9.21;100.00;98566.13;2188719;81;20993;-59
2022/12/26 16:10:34;;;;;;;88.87;28.10;;;;;;;9.13;100.00;98558.74;2189133;81;21000;-59